Benifaio, Spain
Current Conditions -  °F | °C
As of 9:30 AM on Thursday 29 Jan 2015 (Local Time) from LEVC Reporting Station
Clear Clear  
Wind Chill: 52°   Ceiling: Unl
Heat Index: 52°   Visibility: 6mi
Dew Point: 37°   Wind: 13mph
Humidity: 58%   Direction: 240°WSW
Pressure: 29.94"   Gusts: NA
Location:  39.28°N, 0.43°W
Report Text: LEVC 290830Z 24011KT CAVOK 11/03 Q1014 NOSIG
Loading
Personal Weather Stations






























Interactive Weather Map New forecast layout! Learn more

10-Day Weather Forecast

Advertisements
Track Severe Weather on mobile